AAL524 KJFK-KLAX
Flight info
| Callsign | AAL524 |
|---|---|
| Flight time | N/A |
| Altitude | 36000 |
| Route | RBV Q430 AIR J80 BAYLI/N0483F380 J80 MCI J24 SLN J102 ALS J44 RSK J64 TBC JASSE Q90 DNERO ANJLL4 |
| Aircraft | B77W/H-SDE1E2E3FGHIJ2J3J4J5M1RWXY/LB1D1 |
Departure
| Time | 2026-05-07 00:48 |
|---|---|
| Airport | John F. Kennedy International Airport (KJFK) |
Arrival
| Time | N/A |
|---|---|
| Airport | Los Angeles International Airport (KLAX) |
| Time | Latitude | Longitude | Altitude | Speed | Heading |
|---|---|---|---|---|---|
| 2026-05-07 00:03 | 40.64789 | -73.79353 | 20 ft | 0 kts | 150° |
| 2026-05-07 00:04 | 40.64777 | -73.79345 | 20 ft | 0 kts | 151° |
| 2026-05-07 00:21 | 40.64786 | -73.79352 | 20 ft | 4 kts | 151° |
| 2026-05-07 00:21 | 40.64810 | -73.79369 | 24 ft | 4 kts | 151° |
| 2026-05-07 00:22 | 40.64827 | -73.79381 | 23 ft | 3 kts | 140° |
| 2026-05-07 00:22 | 40.64836 | -73.79393 | 23 ft | 3 kts | 91° |
| 2026-05-07 00:22 | 40.64831 | -73.79415 | 25 ft | 4 kts | 61° |
| 2026-05-07 00:22 | 40.64818 | -73.79446 | 25 ft | 2 kts | 61° |
| 2026-05-07 00:23 | 40.64817 | -73.79449 | 25 ft | 4 kts | 61° |
| 2026-05-07 00:30 | 40.64817 | -73.79450 | 25 ft | 0 kts | 61° |
| 2026-05-07 00:31 | 40.64820 | -73.79443 | 24 ft | 0 kts | 61° |
| 2026-05-07 00:31 | 40.64821 | -73.79440 | 20 ft | 2 kts | 60° |
| 2026-05-07 00:32 | 40.64840 | -73.79396 | 22 ft | 9 kts | 60° |
| 2026-05-07 00:32 | 40.64880 | -73.79301 | 23 ft | 15 kts | 60° |
| 2026-05-07 00:32 | 40.64934 | -73.79172 | 20 ft | 17 kts | 61° |
| 2026-05-07 00:32 | 40.64970 | -73.79087 | 22 ft | 0 kts | 60° |
| 2026-05-07 00:33 | 40.64971 | -73.79083 | 21 ft | 0 kts | 60° |
| 2026-05-07 00:33 | 40.64971 | -73.79084 | 21 ft | 0 kts | 60° |
| 2026-05-07 00:35 | 40.64972 | -73.79081 | 21 ft | 1 kts | 60° |
| 2026-05-07 00:35 | 40.64977 | -73.79069 | 20 ft | 2 kts | 60° |
| 2026-05-07 00:35 | 40.64989 | -73.79043 | 20 ft | 5 kts | 60° |
| 2026-05-07 00:35 | 40.65009 | -73.78996 | 22 ft | 7 kts | 60° |
| 2026-05-07 00:36 | 40.65045 | -73.78937 | 21 ft | 9 kts | 36° |
| 2026-05-07 00:36 | 40.65106 | -73.78911 | 20 ft | 10 kts | 13° |
| 2026-05-07 00:36 | 40.65135 | -73.78852 | 20 ft | 9 kts | 84° |
| 2026-05-07 00:36 | 40.65148 | -73.78764 | 20 ft | 11 kts | 72° |
| 2026-05-07 00:37 | 40.65184 | -73.78665 | 24 ft | 13 kts | 63° |
| 2026-05-07 00:37 | 40.65229 | -73.78557 | 22 ft | 12 kts | 59° |
| 2026-05-07 00:37 | 40.65231 | -73.78553 | 22 ft | 0 kts | 59° |
| 2026-05-07 00:38 | 40.65231 | -73.78552 | 22 ft | 2 kts | 59° |
| 2026-05-07 00:38 | 40.65253 | -73.78500 | 23 ft | 8 kts | 66° |
| 2026-05-07 00:38 | 40.65266 | -73.78430 | 23 ft | 8 kts | 86° |
| 2026-05-07 00:39 | 40.65254 | -73.78360 | 22 ft | 8 kts | 114° |
| 2026-05-07 00:39 | 40.65227 | -73.78295 | 22 ft | 8 kts | 119° |
| 2026-05-07 00:39 | 40.65199 | -73.78230 | 21 ft | 8 kts | 120° |
| 2026-05-07 00:39 | 40.65170 | -73.78165 | 22 ft | 8 kts | 122° |
| 2026-05-07 00:40 | 40.65140 | -73.78101 | 21 ft | 8 kts | 122° |
| 2026-05-07 00:40 | 40.65110 | -73.78037 | 24 ft | 8 kts | 122° |
| 2026-05-07 00:40 | 40.65080 | -73.77969 | 21 ft | 9 kts | 119° |
| 2026-05-07 00:40 | 40.65044 | -73.77890 | 21 ft | 11 kts | 121° |
| 2026-05-07 00:41 | 40.65004 | -73.77800 | 21 ft | 12 kts | 121° |
| 2026-05-07 00:41 | 40.64966 | -73.77718 | 21 ft | 10 kts | 121° |
| 2026-05-07 00:41 | 40.64943 | -73.77669 | 21 ft | 6 kts | 122° |
| 2026-05-07 00:41 | 40.64918 | -73.77609 | 21 ft | 9 kts | 110° |
| 2026-05-07 00:42 | 40.64932 | -73.77526 | 21 ft | 11 kts | 57° |
| 2026-05-07 00:42 | 40.64997 | -73.77460 | 26 ft | 13 kts | 24° |
| 2026-05-07 00:42 | 40.65078 | -73.77409 | 25 ft | 13 kts | 28° |
| 2026-05-07 00:42 | 40.65124 | -73.77335 | 21 ft | 10 kts | 88° |
| 2026-05-07 00:43 | 40.65097 | -73.77245 | 23 ft | 12 kts | 121° |
| 2026-05-07 00:43 | 40.65050 | -73.77139 | 26 ft | 15 kts | 121° |
| 2026-05-07 00:43 | 40.64994 | -73.77016 | 25 ft | 17 kts | 121° |
| 2026-05-07 00:43 | 40.64937 | -73.76889 | 25 ft | 13 kts | 121° |
| 2026-05-07 00:44 | 40.64909 | -73.76829 | 24 ft | 0 kts | 120° |
| 2026-05-07 00:44 | 40.64908 | -73.76827 | 24 ft | 1 kts | 120° |
| 2026-05-07 00:45 | 40.64894 | -73.76796 | 26 ft | 8 kts | 120° |
| 2026-05-07 00:45 | 40.64887 | -73.76707 | 23 ft | 11 kts | 64° |
| 2026-05-07 00:45 | 40.64955 | -73.76637 | 21 ft | 14 kts | 33° |
| 2026-05-07 00:45 | 40.65042 | -73.76572 | 20 ft | 14 kts | 31° |
| 2026-05-07 00:46 | 40.65088 | -73.76478 | 20 ft | 12 kts | 95° |
| 2026-05-07 00:46 | 40.65048 | -73.76384 | 20 ft | 12 kts | 149° |
| 2026-05-07 00:46 | 40.64965 | -73.76397 | 20 ft | 11 kts | 205° |
| 2026-05-07 00:46 | 40.64955 | -73.76405 | 20 ft | 0 kts | 212° |
| 2026-05-07 00:47 | 40.64936 | -73.76421 | 21 ft | 15 kts | 212° |
| 2026-05-07 00:47 | 40.64622 | -73.76673 | 26 ft | 94 kts | 208° |
| 2026-05-07 00:47 | 40.63838 | -73.77282 | 29 ft | 164 kts | 210° |
| 2026-05-07 00:47 | 40.62776 | -73.78114 | 475 ft | 182 kts | 211° |
| 2026-05-07 00:48 | 40.61726 | -73.78925 | 1439 ft | 172 kts | 213° |
| 2026-05-07 00:48 | 40.60667 | -73.79638 | 2160 ft | 179 kts | 212° |
| 2026-05-07 00:48 | 40.59461 | -73.80419 | 2391 ft | 206 kts | 211° |
| 2026-05-07 00:48 | 40.58096 | -73.81314 | 2758 ft | 227 kts | 211° |
| 2026-05-07 00:49 | 40.56638 | -73.82283 | 3381 ft | 239 kts | 211° |
| 2026-05-07 00:49 | 40.55147 | -73.83276 | 4151 ft | 245 kts | 212° |
| 2026-05-07 00:49 | 40.53609 | -73.84291 | 4997 ft | 249 kts | 211° |
| 2026-05-07 00:49 | 40.52044 | -73.85306 | 5892 ft | 250 kts | 212° |
| 2026-05-07 00:50 | 40.50467 | -73.86305 | 6708 ft | 253 kts | 212° |
| 2026-05-07 00:50 | 40.48868 | -73.87300 | 7573 ft | 253 kts | 212° |
| 2026-05-07 00:50 | 40.47288 | -73.88267 | 8412 ft | 254 kts | 212° |
| 2026-05-07 00:50 | 40.45664 | -73.89238 | 9239 ft | 257 kts | 212° |
| 2026-05-07 00:51 | 40.44025 | -73.90204 | 10042 ft | 259 kts | 212° |
| 2026-05-07 00:51 | 40.42357 | -73.91179 | 10723 ft | 267 kts | 211° |
| 2026-05-07 00:51 | 40.40591 | -73.92233 | 10973 ft | 290 kts | 213° |
| 2026-05-07 00:51 | 40.38985 | -73.93880 | 11111 ft | 302 kts | 238° |
| 2026-05-07 00:52 | 40.38072 | -73.96442 | 11304 ft | 320 kts | 250° |
| 2026-05-07 00:52 | 40.37293 | -73.99197 | 11927 ft | 331 kts | 250° |
| 2026-05-07 00:52 | 40.36442 | -74.02034 | 12843 ft | 337 kts | 249° |
| 2026-05-07 00:52 | 40.35539 | -74.04899 | 13822 ft | 341 kts | 248° |
| 2026-05-07 00:53 | 40.34597 | -74.07780 | 14707 ft | 345 kts | 248° |
| 2026-05-07 00:53 | 40.33624 | -74.10688 | 15596 ft | 350 kts | 248° |
| 2026-05-07 00:53 | 40.32625 | -74.13627 | 16477 ft | 354 kts | 248° |
| 2026-05-07 00:53 | 40.31622 | -74.16557 | 17013 ft | 358 kts | 248° |
| 2026-05-07 00:54 | 40.30589 | -74.19559 | 17042 ft | 363 kts | 248° |
| 2026-05-07 00:54 | 40.29541 | -74.22595 | 17827 ft | 367 kts | 248° |
| 2026-05-07 00:54 | 40.28485 | -74.25646 | 18713 ft | 367 kts | 248° |
| 2026-05-07 00:54 | 40.27433 | -74.28680 | 19743 ft | 363 kts | 249° |
| 2026-05-07 00:55 | 40.26393 | -74.31681 | 20719 ft | 361 kts | 249° |
| 2026-05-07 00:55 | 40.25366 | -74.34644 | 21570 ft | 362 kts | 249° |
| 2026-05-07 00:55 | 40.24321 | -74.37658 | 22385 ft | 363 kts | 250° |
| 2026-05-07 00:55 | 40.23273 | -74.40676 | 23223 ft | 364 kts | 250° |
| 2026-05-07 00:56 | 40.22220 | -74.43702 | 23918 ft | 365 kts | 250° |
| 2026-05-07 00:56 | 40.21307 | -74.46806 | 24493 ft | 366 kts | 256° |
| 2026-05-07 00:56 | 40.20610 | -74.50023 | 25035 ft | 368 kts | 258° |
| 2026-05-07 00:56 | 40.20018 | -74.53267 | 25611 ft | 370 kts | 260° |
| 2026-05-07 00:57 | 40.19608 | -74.56602 | 26198 ft | 371 kts | 264° |
| 2026-05-07 00:57 | 40.19337 | -74.59980 | 26765 ft | 374 kts | 265° |
| 2026-05-07 00:57 | 40.19086 | -74.63330 | 27294 ft | 376 kts | 265° |
| 2026-05-07 00:57 | 40.18832 | -74.66752 | 27821 ft | 379 kts | 265° |
| 2026-05-07 00:58 | 40.18574 | -74.70189 | 28331 ft | 381 kts | 265° |
| 2026-05-07 00:58 | 40.18310 | -74.73654 | 28799 ft | 384 kts | 265° |
| 2026-05-07 00:58 | 40.18038 | -74.77158 | 29281 ft | 386 kts | 265° |
| 2026-05-07 00:58 | 40.17763 | -74.80650 | 29731 ft | 388 kts | 265° |
| 2026-05-07 00:59 | 40.17207 | -74.87651 | 30574 ft | 387 kts | 265° |
| 2026-05-07 00:59 | 40.16927 | -74.91142 | 31175 ft | 382 kts | 265° |
| 2026-05-07 00:59 | 40.16650 | -74.94586 | 31752 ft | 378 kts | 265° |
| 2026-05-07 01:00 | 40.16375 | -74.97996 | 32250 ft | 375 kts | 265° |
| 2026-05-07 01:00 | 40.16100 | -75.01390 | 32597 ft | 375 kts | 265° |
| 2026-05-07 01:00 | 40.15828 | -75.04748 | 32921 ft | 375 kts | 265° |
| 2026-05-07 01:00 | 40.15552 | -75.08132 | 33262 ft | 375 kts | 265° |
| 2026-05-07 01:01 | 40.15274 | -75.11532 | 33601 ft | 374 kts | 265° |
| 2026-05-07 01:01 | 40.14996 | -75.14911 | 33905 ft | 373 kts | 265° |
| 2026-05-07 01:01 | 40.14719 | -75.18280 | 34162 ft | 373 kts | 265° |
| 2026-05-07 01:01 | 40.14439 | -75.21656 | 34400 ft | 372 kts | 265° |
| 2026-05-07 01:02 | 40.14164 | -75.24976 | 34659 ft | 371 kts | 265° |
| 2026-05-07 01:02 | 40.13885 | -75.28335 | 34900 ft | 370 kts | 265° |
| 2026-05-07 01:02 | 40.13606 | -75.31680 | 35142 ft | 370 kts | 265° |
| 2026-05-07 01:02 | 40.13325 | -75.35017 | 35402 ft | 368 kts | 265° |
| 2026-05-07 01:03 | 40.13045 | -75.38340 | 35661 ft | 367 kts | 265° |
| 2026-05-07 01:03 | 40.12759 | -75.41674 | 35765 ft | 369 kts | 265° |
| 2026-05-07 01:03 | 40.12471 | -75.44978 | 35823 ft | 370 kts | 265° |
| 2026-05-07 01:04 | 40.11886 | -75.51655 | 35883 ft | 367 kts | 265° |
| 2026-05-07 01:04 | 40.11309 | -75.58220 | 35883 ft | 365 kts | 265° |
| 2026-05-07 01:05 | 40.10725 | -75.64825 | 35888 ft | 364 kts | 265° |
| 2026-05-07 01:05 | 40.10144 | -75.71366 | 35892 ft | 364 kts | 265° |
| 2026-05-07 01:06 | 40.09556 | -75.77946 | 35893 ft | 364 kts | 265° |
| 2026-05-07 01:06 | 40.08964 | -75.84528 | 35893 ft | 365 kts | 265° |
| 2026-05-07 01:07 | 40.08377 | -75.91088 | 35886 ft | 365 kts | 265° |
| 2026-05-07 01:07 | 40.07784 | -75.97692 | 35888 ft | 366 kts | 265° |
| 2026-05-07 01:08 | 40.07186 | -76.04312 | 35887 ft | 366 kts | 265° |
| 2026-05-07 01:08 | 40.06589 | -76.10875 | 35897 ft | 366 kts | 265° |
| 2026-05-07 01:09 | 40.05983 | -76.17482 | 35906 ft | 366 kts | 265° |
| 2026-05-07 01:09 | 40.05378 | -76.24045 | 35913 ft | 366 kts | 265° |
| 2026-05-07 01:10 | 40.04765 | -76.30645 | 35901 ft | 365 kts | 264° |
| 2026-05-07 01:10 | 40.04152 | -76.37220 | 35910 ft | 365 kts | 264° |
| 2026-05-07 01:11 | 40.03534 | -76.43804 | 35902 ft | 364 kts | 264° |
| 2026-05-07 01:11 | 40.02916 | -76.50335 | 35901 ft | 364 kts | 264° |
| 2026-05-07 01:12 | 40.02289 | -76.56918 | 35892 ft | 364 kts | 264° |
| 2026-05-07 01:12 | 40.01663 | -76.63444 | 35889 ft | 364 kts | 264° |
| 2026-05-07 01:13 | 40.01031 | -76.69998 | 35911 ft | 364 kts | 264° |
| 2026-05-07 01:13 | 40.00397 | -76.76553 | 35913 ft | 364 kts | 264° |
| 2026-05-07 01:14 | 39.99763 | -76.83060 | 35919 ft | 364 kts | 264° |
| 2026-05-07 01:14 | 39.99121 | -76.89617 | 35919 ft | 363 kts | 264° |
| 2026-05-07 01:15 | 39.98476 | -76.96153 | 35917 ft | 363 kts | 264° |
| 2026-05-07 01:15 | 39.97831 | -77.02655 | 35911 ft | 363 kts | 264° |
| 2026-05-07 01:16 | 39.97179 | -77.09192 | 35908 ft | 363 kts | 264° |
| 2026-05-07 01:16 | 39.96524 | -77.15726 | 35910 ft | 362 kts | 264° |
| 2026-05-07 01:17 | 39.95870 | -77.22218 | 35907 ft | 362 kts | 264° |
| 2026-05-07 01:17 | 39.95299 | -77.28743 | 35904 ft | 361 kts | 266° |
| 2026-05-07 01:18 | 39.95261 | -77.35258 | 35905 ft | 361 kts | 271° |
| 2026-05-07 01:18 | 39.95491 | -77.41820 | 35913 ft | 361 kts | 271° |
| 2026-05-07 01:19 | 39.95707 | -77.48342 | 35919 ft | 362 kts | 270° |
| 2026-05-07 01:19 | 39.95912 | -77.54923 | 35931 ft | 362 kts | 270° |
| 2026-05-07 01:20 | 39.96112 | -77.61466 | 35930 ft | 363 kts | 270° |
| 2026-05-07 01:20 | 39.96310 | -77.68052 | 35927 ft | 363 kts | 270° |
| 2026-05-07 01:21 | 39.96504 | -77.74598 | 35933 ft | 362 kts | 270° |
| 2026-05-07 01:21 | 39.96694 | -77.81159 | 35932 ft | 362 kts | 270° |
| 2026-05-07 01:22 | 39.96880 | -77.87692 | 35932 ft | 362 kts | 270° |
| 2026-05-07 01:22 | 39.97063 | -77.94266 | 35935 ft | 361 kts | 270° |
| 2026-05-07 01:23 | 39.97243 | -78.00771 | 35939 ft | 360 kts | 270° |
| 2026-05-07 01:23 | 39.97424 | -78.07321 | 35930 ft | 360 kts | 270° |
| 2026-05-07 01:24 | 39.97600 | -78.13858 | 35932 ft | 360 kts | 270° |
| 2026-05-07 01:24 | 39.97771 | -78.20360 | 35948 ft | 360 kts | 270° |
| 2026-05-07 01:25 | 39.97940 | -78.26915 | 35946 ft | 361 kts | 270° |
| 2026-05-07 01:25 | 39.98104 | -78.33420 | 35956 ft | 361 kts | 269° |
| 2026-05-07 01:26 | 39.98265 | -78.39991 | 35972 ft | 362 kts | 269° |
| 2026-05-07 01:26 | 39.98424 | -78.46523 | 35970 ft | 362 kts | 269° |
| 2026-05-07 01:27 | 39.98577 | -78.53107 | 35974 ft | 363 kts | 269° |
| 2026-05-07 01:27 | 39.98730 | -78.59695 | 35969 ft | 363 kts | 269° |
| 2026-05-07 01:28 | 39.98879 | -78.66269 | 35976 ft | 361 kts | 269° |
| 2026-05-07 01:28 | 39.99020 | -78.72784 | 35969 ft | 360 kts | 269° |
| 2026-05-07 01:29 | 39.99159 | -78.79320 | 35966 ft | 359 kts | 269° |
| 2026-05-07 01:29 | 39.99293 | -78.85795 | 35966 ft | 359 kts | 269° |
| 2026-05-07 01:30 | 39.99425 | -78.92310 | 35975 ft | 359 kts | 269° |
| 2026-05-07 01:30 | 39.99531 | -78.97723 | 35970 ft | 359 kts | 269° |
| 2026-05-07 01:31 | 39.99676 | -79.05302 | 35968 ft | 359 kts | 269° |
| 2026-05-07 01:31 | 39.99776 | -79.10722 | 35971 ft | 359 kts | 269° |
| 2026-05-07 01:32 | 39.99894 | -79.17251 | 35977 ft | 359 kts | 269° |
| 2026-05-07 01:32 | 40.00008 | -79.23751 | 35985 ft | 359 kts | 269° |
| 2026-05-07 01:33 | 40.00118 | -79.30227 | 35973 ft | 358 kts | 269° |
| 2026-05-07 01:33 | 40.00226 | -79.36730 | 35986 ft | 357 kts | 269° |
| 2026-05-07 01:34 | 40.00327 | -79.43184 | 35976 ft | 357 kts | 269° |
| 2026-05-07 01:34 | 40.00427 | -79.49684 | 35985 ft | 357 kts | 269° |
| 2026-05-07 01:35 | 40.00522 | -79.56118 | 35994 ft | 357 kts | 269° |
| 2026-05-07 01:35 | 40.00617 | -79.62611 | 35979 ft | 357 kts | 269° |
| 2026-05-07 01:36 | 40.00708 | -79.69047 | 35987 ft | 356 kts | 269° |
| 2026-05-07 01:36 | 40.00794 | -79.75504 | 35984 ft | 356 kts | 269° |
| 2026-05-07 01:37 | 40.00877 | -79.81970 | 35982 ft | 355 kts | 269° |
| 2026-05-07 01:37 | 40.00955 | -79.88391 | 35984 ft | 355 kts | 269° |
| 2026-05-07 01:38 | 40.01031 | -79.94837 | 35975 ft | 354 kts | 269° |
| 2026-05-07 01:38 | 40.01101 | -80.01235 | 35981 ft | 354 kts | 269° |
| 2026-05-07 01:39 | 40.01170 | -80.07656 | 35990 ft | 354 kts | 269° |
| 2026-05-07 01:39 | 40.01235 | -80.14057 | 35990 ft | 354 kts | 268° |
| 2026-05-07 01:40 | 40.01295 | -80.20485 | 35990 ft | 354 kts | 268° |
| 2026-05-07 01:40 | 40.01353 | -80.26925 | 35992 ft | 355 kts | 268° |
| 2026-05-07 01:41 | 40.01407 | -80.33344 | 35998 ft | 355 kts | 268° |
| 2026-05-07 01:41 | 40.01457 | -80.39809 | 35988 ft | 356 kts | 268° |
| 2026-05-07 01:42 | 40.01504 | -80.46246 | 35993 ft | 355 kts | 268° |
| 2026-05-07 01:42 | 40.01548 | -80.52658 | 35978 ft | 355 kts | 268° |
| 2026-05-07 01:43 | 40.01588 | -80.59117 | 35985 ft | 354 kts | 268° |
| 2026-05-07 01:43 | 40.01624 | -80.65516 | 35984 ft | 354 kts | 268° |
| 2026-05-07 01:44 | 40.01657 | -80.71951 | 35984 ft | 354 kts | 268° |
| 2026-05-07 01:44 | 40.01687 | -80.78378 | 35990 ft | 354 kts | 268° |
| 2026-05-07 01:45 | 40.01684 | -80.84762 | 35983 ft | 354 kts | 267° |
| 2026-05-07 01:45 | 40.01589 | -80.91187 | 35985 ft | 353 kts | 267° |
| 2026-05-07 01:46 | 40.01490 | -80.97576 | 35991 ft | 353 kts | 267° |
| 2026-05-07 01:46 | 40.01394 | -81.03995 | 35989 ft | 353 kts | 267° |
| 2026-05-07 01:47 | 40.01299 | -81.10370 | 35993 ft | 353 kts | 267° |
| 2026-05-07 01:47 | 40.01201 | -81.16786 | 35998 ft | 352 kts | 267° |
| 2026-05-07 01:48 | 40.01099 | -81.23152 | 36010 ft | 352 kts | 267° |
| 2026-05-07 01:48 | 40.00980 | -81.29565 | 36009 ft | 352 kts | 266° |
| 2026-05-07 01:49 | 40.00855 | -81.35930 | 36019 ft | 352 kts | 266° |
| 2026-05-07 01:49 | 40.00726 | -81.42335 | 36012 ft | 352 kts | 266° |
| 2026-05-07 01:50 | 40.00597 | -81.48703 | 36019 ft | 352 kts | 266° |
| 2026-05-07 01:50 | 40.00502 | -81.53224 | 36016 ft | 352 kts | 266° |